Time;durP1;ratioP1;P1;durP2;ratioP2;P2;SDS_P1;SDS_P2;PMS_P1;PMS_P2;Temp;Humidity;BMP_temperature;BMP_pressure;BME280_temperature;BME280_humidity;BME280_pressure;Samples;Min_cycle;Max_cycle;Signal;HPM_P1;HPM_P2
2022/07/19 00:02:12;;;;;;;3.70;3.40;;;;;;;30.63;37.04;97143.16;5077056;28;20055;-29
2022/07/19 00:04:37;;;;;;;3.72;3.42;;;;;;;30.63;37.56;97136.81;5076750;28;20488;-29
2022/07/19 00:07:03;;;;;;;3.83;3.38;;;;;;;30.67;37.56;97140.75;5076912;28;20044;-29
2022/07/19 00:09:29;;;;;;;3.90;3.00;;;;;;;30.61;37.42;97133.78;5076552;28;20044;-29
2022/07/19 00:11:54;;;;;;;4.32;3.92;;;;;;;30.67;36.93;97140.00;5076751;28;20367;-29
2022/07/19 00:14:21;;;;;;;4.47;3.33;;;;;;;30.73;36.95;97139.88;5076470;28;20125;-29
2022/07/19 00:16:47;;;;;;;4.38;3.60;;;;;;;30.63;36.86;97137.56;5076567;28;20028;-31
2022/07/19 00:19:13;;;;;;;3.53;3.22;;;;;;;30.64;37.23;97132.72;5076558;28;20024;-29
2022/07/19 00:21:38;;;;;;;4.53;3.17;;;;;;;30.58;37.08;97129.28;5076391;28;20032;-29
2022/07/19 00:24:03;;;;;;;3.63;3.33;;;;;;;30.63;37.19;97128.41;5076390;28;20074;-29
2022/07/19 00:26:29;;;;;;;3.53;3.15;;;;;;;30.60;36.65;97135.09;5076542;28;20035;-29
2022/07/19 00:28:56;;;;;;;3.53;3.22;;;;;;;30.67;36.70;97135.16;5076465;28;20025;-29
2022/07/19 00:31:24;;;;;;;4.25;3.63;;;;;;;30.69;36.55;97132.56;5076221;28;20021;-29
2022/07/19 00:33:51;;;;;;;3.50;3.15;;;;;;;30.61;37.10;97128.19;5076243;28;20032;-29
2022/07/19 00:36:16;;;;;;;3.60;2.97;;;;;;;30.55;36.71;97125.50;5076181;28;20063;-30
2022/07/19 00:38:42;;;;;;;3.55;3.25;;;;;;;30.57;36.75;97128.53;5076127;28;20487;-30
2022/07/19 00:41:07;;;;;;;3.35;3.13;;;;;;;30.55;36.91;97131.09;5075909;28;20094;-29
2022/07/19 00:43:33;;;;;;;4.50;3.58;;;;;;;30.59;37.05;97122.38;5076044;28;20471;-29
2022/07/19 00:45:58;;;;;;;3.72;3.42;;;;;;;30.56;36.89;97120.66;5075806;28;20024;-29
2022/07/19 00:48:24;;;;;;;5.30;3.30;;;;;;;30.56;36.50;97118.63;5075840;28;20425;-29
2022/07/19 00:50:50;;;;;;;4.20;3.20;;;;;;;30.56;36.92;97117.88;5075990;28;20094;-28
2022/07/19 00:53:17;;;;;;;3.58;3.28;;;;;;;30.56;36.60;97117.88;5084449;28;20028;-29
2022/07/19 00:55:44;;;;;;;3.55;3.03;;;;;;;30.64;36.24;97115.91;5087224;28;20096;-29
2022/07/19 00:58:13;;;;;;;3.97;3.28;;;;;;;30.65;36.65;97118.16;5075654;28;20367;-31
2022/07/19 01:00:40;;;;;;;3.65;3.10;;;;;;;30.58;36.38;97118.81;5076018;28;20059;-29
2022/07/19 01:03:10;;;;;;;5.45;2.85;;;;;;;30.61;35.92;97122.59;5075665;28;20111;-30
2022/07/19 01:05:35;;;;;;;3.45;3.15;;;;;;;30.57;36.62;97116.56;5075474;28;20031;-29
2022/07/19 01:08:01;;;;;;;4.28;3.30;;;;;;;30.58;36.06;97120.88;5074435;28;20033;-29
2022/07/19 01:10:27;;;;;;;3.45;3.10;;;;;;;30.68;35.74;97117.06;5075426;28;20044;-29
2022/07/19 01:12:53;;;;;;;3.30;3.10;;;;;;;30.71;35.76;97115.22;5075416;28;20031;-29
2022/07/19 01:15:25;;;;;;;3.72;3.30;;;;;;;30.72;35.23;97116.72;5075736;28;20371;-29
2022/07/19 01:17:52;;;;;;;4.97;3.10;;;;;;;30.74;35.45;97116.94;5075665;28;20047;-30
2022/07/19 01:20:20;;;;;;;3.05;2.83;;;;;;;30.67;35.47;97121.16;5075752;28;20258;-29
2022/07/19 01:22:46;;;;;;;3.35;3.10;;;;;;;30.73;35.77;97123.81;5075258;28;20051;-29
2022/07/19 01:25:12;;;;;;;4.15;3.10;;;;;;;30.73;35.26;97123.06;5075302;28;20024;-29
2022/07/19 01:27:50;;;;;;;3.53;3.22;;;;;;;30.74;35.04;97116.94;5075210;28;20025;-30
2022/07/19 01:30:19;;;;;;;3.90;3.38;;;;;;;30.74;35.11;97116.94;5075457;28;20029;-29
2022/07/19 01:32:45;;;;;;;3.55;3.25;;;;;;;30.67;35.65;97120.41;5075080;28;20497;-29
2022/07/19 01:35:11;;;;;;;3.63;3.05;;;;;;;30.71;35.08;97120.81;5075132;28;20029;-29
2022/07/19 01:37:38;;;;;;;3.50;3.20;;;;;;;30.75;34.86;97114.88;5075004;28;20533;-30
2022/07/19 01:40:05;;;;;;;4.72;3.13;;;;;;;30.78;34.70;97116.59;5074941;28;20497;-29
2022/07/19 01:42:31;;;;;;;3.30;3.00;;;;;;;30.74;34.51;97105.72;5074928;28;20035;-29
2022/07/19 01:44:57;;;;;;;3.30;3.00;;;;;;;30.76;34.43;97113.59;5075019;28;20025;-29
2022/07/19 01:47:23;;;;;;;3.58;3.00;;;;;;;30.74;34.65;97111.34;5074960;28;20086;-29
2022/07/19 01:49:48;;;;;;;3.88;3.00;;;;;;;30.75;35.08;97112.84;5074831;28;20021;-29
2022/07/19 01:52:14;;;;;;;3.03;2.72;;;;;;;30.74;34.43;97116.94;5074901;28;20017;-28
2022/07/19 01:54:40;;;;;;;3.05;2.72;;;;;;;30.69;34.59;97112.22;5074589;28;20352;-29
2022/07/19 01:57:05;;;;;;;3.15;2.85;;;;;;;30.68;34.48;97116.31;5074951;28;20027;-29
2022/07/19 01:59:30;;;;;;;2.70;2.50;;;;;;;30.73;34.08;97112.63;5074976;28;20040;-29
2022/07/19 02:01:56;;;;;;;3.50;3.17;;;;;;;30.73;34.46;97112.63;5074531;28;20047;-29
2022/07/19 02:04:21;;;;;;;3.60;3.30;;;;;;;30.68;34.68;97108.66;5074359;28;20031;-29
2022/07/19 02:06:47;;;;;;;2.70;2.50;;;;;;;30.69;34.32;97107.38;5074408;28;20058;-29
2022/07/19 02:09:12;;;;;;;3.20;2.90;;;;;;;30.62;34.43;97102.47;5074240;28;20043;-29
2022/07/19 02:11:38;;;;;;;2.92;2.70;;;;;;;30.69;34.22;97104.56;5074257;28;20355;-29
2022/07/19 02:14:08;;;;;;;3.53;2.88;;;;;;;30.70;34.03;97102.50;5074425;28;20025;-29
2022/07/19 02:16:35;;;;;;;3.17;2.83;;;;;;;30.69;34.08;97101.00;5074467;28;20028;-30
2022/07/19 02:19:01;;;;;;;3.28;3.03;;;;;;;30.68;34.51;97094.66;5073993;28;20036;-29
2022/07/19 02:21:26;;;;;;;3.80;2.97;;;;;;;30.62;34.63;97101.69;5074261;28;20099;-29
2022/07/19 02:23:52;;;;;;;3.17;2.88;;;;;;;30.67;34.47;97103.59;5074159;28;20024;-29
2022/07/19 02:26:18;;;;;;;3.20;2.90;;;;;;;30.65;34.39;97101.38;5074016;28;20032;-29
2022/07/19 02:28:43;;;;;;;3.30;3.00;;;;;;;30.66;34.15;97102.13;5073893;28;20080;-29
2022/07/19 02:31:10;;;;;;;3.33;3.03;;;;;;;30.63;34.35;97108.81;5074493;28;20016;-29
2022/07/19 02:33:35;;;;;;;3.25;2.92;;;;;;;30.64;34.02;97111.06;5074064;28;20395;-29
2022/07/19 02:36:00;;;;;;;3.10;2.70;;;;;;;30.61;34.03;97108.59;5074074;28;20016;-30
2022/07/19 02:38:26;;;;;;;4.05;2.85;;;;;;;30.62;34.30;97110.09;5074090;28;20027;-29
2022/07/19 02:40:51;;;;;;;3.20;2.90;;;;;;;30.59;34.00;97106.34;5073964;28;20032;-29
2022/07/19 02:43:17;;;;;;;3.83;2.90;;;;;;;30.61;34.14;97111.41;5073679;28;20028;-29
2022/07/19 02:45:43;;;;;;;3.90;2.80;;;;;;;30.60;33.86;97107.84;5073636;28;20025;-29
2022/07/19 02:48:09;;;;;;;3.30;3.00;;;;;;;30.63;33.56;97115.16;5073672;28;20016;-29
2022/07/19 02:50:34;;;;;;;2.90;2.60;;;;;;;30.59;33.44;97109.13;5073718;28;20385;-29
2022/07/19 02:53:00;;;;;;;2.83;2.63;;;;;;;30.59;33.66;97108.38;5073525;28;20028;-29
2022/07/19 02:55:26;;;;;;;4.57;2.92;;;;;;;30.58;33.27;97113.22;5073811;28;20023;-29
2022/07/19 02:57:51;;;;;;;3.00;2.80;;;;;;;30.55;33.78;97111.50;5073732;28;20029;-29
2022/07/19 03:00:17;;;;;;;2.70;2.50;;;;;;;30.59;33.74;97120.34;5073622;28;20024;-29
2022/07/19 03:02:42;;;;;;;4.00;2.40;;;;;;;30.52;33.63;97115.41;5073411;28;20513;-29
2022/07/19 03:05:08;;;;;;;2.92;2.50;;;;;;;30.55;33.69;97110.75;5073556;28;20078;-29
2022/07/19 03:07:34;;;;;;;3.05;2.75;;;;;;;30.55;33.36;97110.75;5073580;28;20027;-30
2022/07/19 03:10:00;;;;;;;2.75;2.55;;;;;;;30.51;33.43;97113.88;5073234;28;20506;-29
2022/07/19 03:12:25;;;;;;;2.90;2.70;;;;;;;30.58;33.48;97112.47;5073523;28;20028;-30
2022/07/19 03:14:50;;;;;;;3.10;2.80;;;;;;;30.53;33.01;97107.75;5073243;28;20044;-29
2022/07/19 03:17:16;;;;;;;3.13;2.83;;;;;;;30.52;33.49;97109.03;5073386;28;20537;-29
2022/07/19 03:19:41;;;;;;;2.60;2.38;;;;;;;30.49;32.87;97110.88;5073570;28;20028;-29
2022/07/19 03:22:07;;;;;;;3.30;2.47;;;;;;;30.50;32.91;97111.63;5073294;28;20056;-29
2022/07/19 03:24:33;;;;;;;2.75;2.55;;;;;;;30.47;33.29;97112.72;5073001;28;20031;-29
2022/07/19 03:26:59;;;;;;;2.70;2.50;;;;;;;30.51;33.34;97113.13;5073143;28;20512;-29
2022/07/19 03:29:24;;;;;;;2.90;2.60;;;;;;;30.47;33.45;97107.88;5072649;28;20029;-29
2022/07/19 03:31:50;;;;;;;3.08;2.80;;;;;;;30.50;33.16;97114.44;5073073;28;20436;-29
2022/07/19 03:34:16;;;;;;;3.17;2.47;;;;;;;30.44;33.41;97108.19;5073113;28;20021;-29
2022/07/19 03:36:41;;;;;;;3.67;2.80;;;;;;;30.42;33.67;97111.53;5073109;28;20029;-29
2022/07/19 03:39:07;;;;;;;2.97;2.63;;;;;;;30.45;33.02;97115.31;5073229;28;20074;-29
2022/07/19 03:41:33;;;;;;;2.72;2.53;;;;;;;30.44;32.96;97103.34;5073141;28;20024;-29
2022/07/19 03:43:58;;;;;;;2.72;2.45;;;;;;;30.42;33.05;97099.59;5072899;28;20024;-29
2022/07/19 03:46:24;;;;;;;2.65;2.45;;;;;;;30.37;33.07;97109.63;5073022;28;20115;-29
2022/07/19 03:48:50;;;;;;;3.05;2.80;;;;;;;30.37;33.19;97109.63;5072907;28;20031;-29
2022/07/19 03:51:16;;;;;;;2.80;2.40;;;;;;;30.38;32.84;97116.00;5072998;28;20130;-29
2022/07/19 03:53:41;;;;;;;2.88;2.33;;;;;;;30.35;32.59;97118.56;5072986;28;20024;-29
2022/07/19 03:56:07;;;;;;;3.55;2.75;;;;;;;30.40;33.08;97125.34;5072988;28;20020;-29
2022/07/19 03:58:32;;;;;;;3.53;2.75;;;;;;;30.36;33.04;97111.69;5073057;28;20065;-29
2022/07/19 04:00:58;;;;;;;3.40;2.42;;;;;;;30.35;33.05;97115.78;5073025;28;20031;-29
2022/07/19 04:03:23;;;;;;;2.55;2.35;;;;;;;30.33;32.38;97115.56;5072821;28;20020;-29
2022/07/19 04:05:49;;;;;;;3.92;2.45;;;;;;;30.36;32.26;97119.31;5072839;28;20020;-29
2022/07/19 04:08:14;;;;;;;2.50;2.30;;;;;;;30.32;31.96;97125.25;5072672;28;20453;-30
2022/07/19 04:10:41;;;;;;;2.42;2.22;;;;;;;30.27;31.78;97119.78;5072613;28;20555;-29
2022/07/19 04:13:07;;;;;;;2.47;2.20;;;;;;;30.26;32.11;97127.44;5073017;28;20025;-29
2022/07/19 04:15:32;;;;;;;2.20;2.00;;;;;;;30.32;32.33;97124.50;5072989;28;20158;-29
2022/07/19 04:17:58;;;;;;;2.17;1.90;;;;;;;30.26;31.46;97124.63;5072642;28;20024;-29
2022/07/19 04:20:23;;;;;;;2.30;2.10;;;;;;;30.27;32.15;97122.59;5072920;28;20016;-29
2022/07/19 04:22:49;;;;;;;2.28;1.90;;;;;;;30.25;32.20;97131.53;5071237;28;20028;-29
2022/07/19 04:25:14;;;;;;;2.45;2.25;;;;;;;30.29;31.52;97128.41;5072612;28;20047;-29
2022/07/19 04:27:40;;;;;;;2.50;2.08;;;;;;;30.26;31.77;97130.22;5072889;28;20474;-29
2022/07/19 04:30:06;;;;;;;2.50;1.80;;;;;;;30.26;32.14;97133.03;5072621;28;20078;-29
2022/07/19 04:32:33;;;;;;;2.83;1.95;;;;;;;30.30;31.53;97133.44;5072489;28;20024;-29
2022/07/19 04:34:59;;;;;;;2.33;2.13;;;;;;;30.24;31.35;97138.41;5072648;28;20017;-29
2022/07/19 04:37:25;;;;;;;2.28;2.05;;;;;;;30.27;31.65;97140.13;5072925;28;20031;-29
2022/07/19 04:39:50;;;;;;;2.28;2.03;;;;;;;30.26;31.45;97146.25;5072476;28;20434;-29
2022/07/19 04:42:16;;;;;;;2.25;2.05;;;;;;;30.25;32.19;97148.31;5075019;28;20025;-29
2022/07/19 04:44:41;;;;;;;2.17;1.98;;;;;;;30.21;31.45;97145.09;5075853;28;20024;-29
2022/07/19 04:47:06;;;;;;;1.73;1.63;;;;;;;30.22;30.50;97148.63;5075923;28;20040;-29
2022/07/19 04:49:32;;;;;;;2.35;2.00;;;;;;;30.27;30.69;97148.53;5075845;28;20028;-29
2022/07/19 04:51:58;;;;;;;3.50;1.80;;;;;;;30.28;31.10;97150.03;5075969;28;20035;-29
2022/07/19 04:54:23;;;;;;;4.03;2.20;;;;;;;30.27;31.59;97145.72;5075863;28;20044;-29
2022/07/19 04:56:48;;;;;;;1.98;1.80;;;;;;;30.23;31.22;97152.94;5075872;28;20381;-29
2022/07/19 04:59:14;;;;;;;2.08;1.88;;;;;;;30.21;30.43;97153.47;5075662;28;20024;-29
2022/07/19 05:01:40;;;;;;;2.95;1.90;;;;;;;30.22;30.50;97154.22;5076014;28;20056;-29
2022/07/19 05:04:05;;;;;;;3.28;1.80;;;;;;;30.17;30.66;97150.25;5075745;28;20043;-29
2022/07/19 05:06:31;;;;;;;3.55;2.13;;;;;;;30.18;30.62;97156.59;5080397;28;20090;-29
2022/07/19 05:08:56;;;;;;;2.92;2.63;;;;;;;30.22;31.29;97152.19;5093768;28;20095;-29
2022/07/19 05:11:22;;;;;;;2.75;2.50;;;;;;;30.19;30.92;97150.47;5093954;28;20543;-30
2022/07/19 05:13:48;;;;;;;2.75;2.17;;;;;;;30.20;30.78;97143.56;5093930;28;20503;-29
2022/07/19 05:16:13;;;;;;;3.60;2.03;;;;;;;30.13;31.02;97152.66;5093914;28;20027;-29
2022/07/19 05:18:39;;;;;;;3.58;2.35;;;;;;;30.15;30.70;97161.25;5085235;28;20493;-29
2022/07/19 05:21:04;;;;;;;2.78;2.40;;;;;;;30.17;30.98;97153.03;5071548;28;20060;-29
2022/07/19 05:23:30;;;;;;;3.28;2.20;;;;;;;30.13;30.93;97149.84;5073285;28;20036;-29
2022/07/19 05:25:55;;;;;;;2.75;2.42;;;;;;;30.14;30.78;97148.56;5073173;28;20032;-29
2022/07/19 05:28:21;;;;;;;3.47;2.20;;;;;;;30.10;30.25;97148.13;5071621;28;20029;-30
2022/07/19 05:30:46;;;;;;;3.42;2.30;;;;;;;30.17;31.18;97158.63;5072946;28;20032;-29
2022/07/19 05:33:12;;;;;;;3.25;2.17;;;;;;;30.04;30.29;97161.50;5073012;28;20088;-29
2022/07/19 05:35:38;;;;;;;4.47;2.45;;;;;;;30.13;30.70;97160.28;5073301;28;20025;-29
2022/07/19 05:38:03;;;;;;;2.88;2.13;;;;;;;30.09;30.32;97157.81;5072873;28;20367;-29
2022/07/19 05:40:29;;;;;;;4.57;2.20;;;;;;;30.06;30.06;97160.91;5076901;28;20027;-31
2022/07/19 05:42:54;;;;;;;3.85;2.03;;;;;;;30.06;29.98;97158.88;5095456;28;20462;-29
2022/07/19 05:45:20;;;;;;;4.40;2.10;;;;;;;30.11;30.20;97165.66;5095246;28;20447;-29
2022/07/19 05:47:45;;;;;;;6.18;2.10;;;;;;;30.07;30.48;97177.16;5094977;28;20547;-29
2022/07/19 05:50:11;;;;;;;4.22;2.55;;;;;;;30.06;30.97;97175.66;5095106;28;20030;-30
2022/07/19 05:52:36;;;;;;;3.03;2.40;;;;;;;30.03;30.44;97170.41;5094657;28;20028;-30
2022/07/19 05:55:02;;;;;;;4.60;2.03;;;;;;;29.95;29.90;97168.22;5094800;28;20054;-29
2022/07/19 05:57:28;;;;;;;4.00;2.40;;;;;;;29.78;29.96;97167.06;5095035;28;20028;-29
2022/07/19 05:59:53;;;;;;;6.43;2.55;;;;;;;29.84;30.33;97167.69;5094697;28;20028;-29
2022/07/19 06:02:19;;;;;;;4.40;2.05;;;;;;;29.94;29.81;97171.56;5094989;28;20024;-29
2022/07/19 06:04:45;;;;;;;4.85;2.38;;;;;;;29.98;29.99;97172.03;5094697;28;20035;-29
2022/07/19 06:07:10;;;;;;;3.28;2.13;;;;;;;29.90;30.42;97168.34;5094923;28;20420;-29
2022/07/19 06:09:36;;;;;;;4.55;2.75;;;;;;;29.98;30.01;97172.78;5094438;28;20055;-29
2022/07/19 06:12:01;;;;;;;8.27;2.40;;;;;;;30.01;30.33;97173.75;5094728;28;20016;-29
2022/07/19 06:14:27;;;;;;;2.95;2.33;;;;;;;30.02;30.27;97164.06;5094575;28;20043;-29
2022/07/19 06:16:53;;;;;;;3.22;2.28;;;;;;;30.01;30.00;97162.56;5094407;28;20481;-29
2022/07/19 06:19:19;;;;;;;5.47;1.85;;;;;;;30.04;30.01;97161.50;5093760;28;20024;-29
2022/07/19 06:21:45;;;;;;;3.92;2.10;;;;;;;29.99;29.95;97170.72;5093209;28;20031;-30
2022/07/19 06:24:11;;;;;;;4.03;2.00;;;;;;;29.94;29.74;97168.75;5094000;28;20054;-29
2022/07/19 06:26:37;;;;;;;4.63;2.10;;;;;;;29.99;29.71;97170.72;5094242;28;20021;-30
2022/07/19 06:29:03;;;;;;;4.25;2.10;;;;;;;30.01;30.29;97179.34;5094049;28;20462;-29
2022/07/19 06:31:28;;;;;;;3.58;2.30;;;;;;;30.09;30.26;97173.84;5093889;28;20028;-29
2022/07/19 06:33:54;;;;;;;4.82;2.10;;;;;;;29.99;29.92;97170.72;5094088;28;20030;-29
2022/07/19 06:36:20;;;;;;;2.40;1.92;;;;;;;29.76;29.19;97169.66;5094163;28;20027;-30
2022/07/19 06:38:47;;;;;;;3.25;1.92;;;;;;;29.94;29.43;97172.31;5094119;28;20032;-29
2022/07/19 06:41:13;;;;;;;3.22;1.83;;;;;;;30.02;29.50;97172.47;5094036;28;20027;-29
2022/07/19 06:43:39;;;;;;;3.03;2.25;;;;;;;30.04;30.01;97169.88;5092765;28;20062;-29
2022/07/19 06:46:05;;;;;;;4.45;2.05;;;;;;;30.01;30.22;97165.34;5093862;28;20035;-29
2022/07/19 06:48:31;;;;;;;4.35;2.05;;;;;;;30.00;29.95;97177.84;5093991;28;20028;-29
2022/07/19 06:50:56;;;;;;;3.22;1.95;;;;;;;30.06;29.76;97170.06;5094209;28;20050;-29
2022/07/19 06:53:22;;;;;;;3.75;2.00;;;;;;;30.05;29.31;97170.59;5093889;28;20020;-29
2022/07/19 06:55:48;;;;;;;4.60;1.83;;;;;;;30.02;28.35;97172.47;5093840;28;20020;-29
2022/07/19 06:58:13;;;;;;;4.10;1.77;;;;;;;29.86;29.51;97173.50;5093870;28;20020;-29
2022/07/19 07:00:39;;;;;;;2.95;2.38;;;;;;;29.98;29.94;97169.97;5093698;28;20419;-29
2022/07/19 07:03:04;;;;;;;2.92;2.08;;;;;;;30.02;29.68;97168.91;5093722;28;20035;-30
2022/07/19 07:05:30;;;;;;;2.80;2.30;;;;;;;30.02;30.30;97164.06;5092751;28;20035;-29
2022/07/19 07:07:55;;;;;;;2.33;1.92;;;;;;;29.98;29.58;97169.97;5093895;28;20023;-27
2022/07/19 07:10:21;;;;;;;5.63;1.77;;;;;;;29.23;28.81;97161.19;5093224;28;20056;-29
2022/07/19 07:12:47;;;;;;;2.55;1.60;;;;;;;29.49;29.01;97161.25;5092287;28;20416;-29
2022/07/19 07:15:12;;;;;;;8.23;2.50;;;;;;;29.75;29.10;97163.31;5092847;28;20024;-29
2022/07/19 07:17:38;;;;;;;2.33;1.73;;;;;;;29.69;29.34;97161.88;5093082;28;20458;-30
2022/07/19 07:20:05;;;;;;;4.00;1.60;;;;;;;29.65;28.62;97160.19;5093665;28;20019;-28
2022/07/19 07:22:31;;;;;;;1.92;1.65;;;;;;;29.77;28.94;97168.34;5093591;28;20032;-29
2022/07/19 07:24:57;;;;;;;2.92;1.90;;;;;;;29.85;28.93;97169.97;5093668;28;20055;-29
2022/07/19 07:27:22;;;;;;;2.20;2.00;;;;;;;29.77;28.92;97165.56;5092040;28;20055;-29
2022/07/19 07:29:48;;;;;;;1.80;1.70;;;;;;;29.80;28.88;97178.44;5093541;28;20020;-29
2022/07/19 07:32:14;;;;;;;3.33;1.60;;;;;;;29.80;28.60;97168.00;5092263;28;20091;-30
2022/07/19 07:34:39;;;;;;;2.15;1.73;;;;;;;29.82;28.66;97161.88;5093581;28;20060;-30
2022/07/19 07:37:05;;;;;;;2.40;1.60;;;;;;;29.81;29.37;97168.78;5093396;28;20066;-29
2022/07/19 07:39:30;;;;;;;2.25;1.85;;;;;;;29.82;28.76;97173.06;5091986;28;20813;-28
2022/07/19 07:41:56;;;;;;;3.00;1.70;;;;;;;29.65;28.38;97171.38;5090990;28;20027;-28
2022/07/19 07:44:21;;;;;;;2.90;1.50;;;;;;;29.32;28.40;97163.56;5092800;28;20028;-28
2022/07/19 07:46:47;;;;;;;2.42;1.88;;;;;;;29.31;28.08;97159.25;5093357;28;20036;-28
2022/07/19 07:49:12;;;;;;;1.63;1.52;;;;;;;29.52;28.19;97162.97;5092961;28;20032;-29
2022/07/19 07:51:38;;;;;;;2.53;1.75;;;;;;;29.36;29.95;97166.78;5092656;28;20099;-29
2022/07/19 07:54:04;;;;;;;3.35;1.50;;;;;;;29.60;28.57;97171.47;5092363;28;20020;-29
2022/07/19 07:56:29;;;;;;;1.80;1.60;;;;;;;29.20;28.37;97171.38;5093140;28;20377;-30
2022/07/19 07:58:54;;;;;;;1.55;1.33;;;;;;;29.27;28.28;97158.84;5093184;28;20062;-29
2022/07/19 08:01:20;;;;;;;5.43;2.03;;;;;;;29.51;28.23;97158.69;5093178;28;20032;-29
2022/07/19 08:03:46;;;;;;;3.20;1.60;;;;;;;29.72;27.86;97158.03;5093093;28;20027;-29
2022/07/19 08:06:11;;;;;;;4.72;1.55;;;;;;;29.33;26.93;97155.94;5093168;28;20043;-29
2022/07/19 08:08:38;;;;;;;3.75;1.80;;;;;;;29.58;28.96;97155.22;5091657;28;20131;-30
2022/07/19 08:11:04;;;;;;;2.60;1.73;;;;;;;29.46;28.06;97151.13;5093083;28;20032;-29
2022/07/19 08:13:30;;;;;;;2.90;1.65;;;;;;;29.51;27.60;97158.69;5093013;28;20038;-28
2022/07/19 08:15:55;;;;;;;2.33;1.80;;;;;;;29.64;28.37;97157.94;5093695;28;20526;-29
2022/07/19 08:18:22;;;;;;;2.22;1.73;;;;;;;29.65;28.04;97149.00;5095558;28;20118;-29
2022/07/19 08:20:47;;;;;;;2.20;1.65;;;;;;;29.71;28.99;97151.69;5096688;28;20054;-28
2022/07/19 08:23:13;;;;;;;4.40;1.88;;;;;;;29.74;29.12;97156.19;5096649;28;20028;-28
2022/07/19 08:25:38;;;;;;;3.75;1.63;;;;;;;29.60;28.77;97152.66;5096750;28;20020;-29
2022/07/19 08:28:04;;;;;;;2.53;1.52;;;;;;;29.74;29.39;97161.03;5096483;28;20545;-29
2022/07/19 08:30:30;;;;;;;2.88;1.60;;;;;;;29.74;29.29;97155.44;5096515;28;20378;-30
2022/07/19 08:32:56;;;;;;;2.70;1.60;;;;;;;29.74;29.43;97152.66;5096346;28;20024;-29
2022/07/19 08:35:21;;;;;;;3.22;1.67;;;;;;;29.75;29.40;97151.38;5096497;28;20020;-29
2022/07/19 08:37:47;;;;;;;2.83;1.60;;;;;;;29.62;30.14;97155.66;5096109;28;20107;-29
2022/07/19 08:40:12;;;;;;;2.17;1.77;;;;;;;29.71;28.92;97145.34;5096238;28;20016;-29
2022/07/19 08:42:38;;;;;;;2.35;1.70;;;;;;;29.68;29.41;97152.75;5096251;28;20459;-29
2022/07/19 08:45:07;;;;;;;5.85;1.73;;;;;;;29.62;28.85;97154.91;5096124;28;20512;-29
2022/07/19 08:47:34;;;;;;;3.42;1.90;;;;;;;29.70;29.91;97155.75;5096232;28;20043;-29
2022/07/19 08:50:01;;;;;;;2.10;1.83;;;;;;;29.67;29.22;97152.00;5096512;28;20347;-29
2022/07/19 08:52:27;;;;;;;2.50;1.77;;;;;;;29.62;29.48;97150.06;5096104;28;20024;-31
2022/07/19 08:54:54;;;;;;;2.13;1.60;;;;;;;29.62;29.89;97155.66;5095964;28;20039;-29
2022/07/19 09:00:05;;;;;;;2.22;1.80;;;;;;;29.82;29.40;97147.91;5095909;28;20477;-30
2022/07/19 09:02:30;;;;;;;1.92;1.70;;;;;;;29.77;29.39;97143.19;5096097;28;20103;-29
2022/07/19 09:05:01;;;;;;;5.60;1.80;;;;;;;29.82;29.75;97145.13;5095810;28;20470;-28
2022/07/19 09:07:26;;;;;;;3.80;1.60;;;;;;;29.70;29.79;97155.00;5096233;28;20037;-29
2022/07/19 09:09:52;;;;;;;2.80;1.65;;;;;;;29.72;29.59;97141.25;5095520;28;20044;-29
2022/07/19 09:12:17;;;;;;;1.75;1.60;;;;;;;29.76;29.80;97153.63;5095880;28;20057;-28
2022/07/19 09:14:53;;;;;;;2.28;2.00;;;;;;;29.74;29.58;97155.44;5095850;28;20027;-29
2022/07/19 09:17:19;;;;;;;2.95;2.00;;;;;;;29.73;29.39;97153.94;5095985;28;20418;-29
2022/07/19 09:19:46;;;;;;;2.70;1.70;;;;;;;29.72;29.29;97144.81;5095855;28;20103;-30
2022/07/19 09:22:13;;;;;;;2.53;1.73;;;;;;;29.74;28.90;97147.81;5095690;28;20024;-29
2022/07/19 09:24:50;;;;;;;1.90;1.60;;;;;;;29.64;29.29;97146.75;5095430;28;20024;-29
2022/07/19 09:27:18;;;;;;;8.30;2.15;;;;;;;29.76;28.83;97147.28;5095316;28;20035;-29
2022/07/19 09:29:47;;;;;;;1.75;1.65;;;;;;;29.76;28.87;97141.69;5095132;28;20103;-30
2022/07/19 09:32:18;;;;;;;4.47;1.65;;;;;;;29.72;29.00;97144.03;5095326;28;20024;-30
2022/07/19 09:34:50;;;;;;;2.97;2.00;;;;;;;29.74;28.94;97131.03;5095726;28;20377;-29
2022/07/19 09:37:28;;;;;;;2.33;1.80;;;;;;;29.71;28.72;97137.69;5095568;28;20031;-28
2022/07/19 09:40:01;;;;;;;2.28;2.08;;;;;;;29.77;28.71;97132.00;5095227;28;20031;-29
2022/07/19 09:42:41;;;;;;;5.03;1.80;;;;;;;29.81;28.84;97138.75;5095541;28;20602;-29
2022/07/19 09:45:08;;;;;;;2.65;2.05;;;;;;;29.73;28.67;97131.56;5095302;28;20055;-29
2022/07/19 09:47:40;;;;;;;2.38;1.95;;;;;;;29.75;28.93;97137.38;5095094;28;20373;-29
2022/07/19 09:50:16;;;;;;;3.00;1.80;;;;;;;29.71;29.01;97139.75;5095149;28;20020;-29
2022/07/19 09:52:43;;;;;;;4.07;1.90;;;;;;;29.79;28.57;97135.78;5095201;28;20071;-29
2022/07/19 09:55:10;;;;;;;2.28;1.80;;;;;;;29.76;27.82;97124.91;5094943;28;20138;-29
2022/07/19 09:57:39;;;;;;;2.15;1.77;;;;;;;29.72;27.79;97130.81;5095011;28;20527;-29
2022/07/19 10:00:06;;;;;;;3.05;1.80;;;;;;;29.72;27.93;97124.47;5094878;28;20039;-29
2022/07/19 10:02:36;;;;;;;2.15;1.95;;;;;;;29.73;27.72;97135.13;5094895;28;20525;-29
2022/07/19 10:05:05;;;;;;;4.70;1.95;;;;;;;29.78;27.35;97128.69;5094811;28;20085;-29
2022/07/19 10:07:32;;;;;;;11.02;2.10;;;;;;;29.64;27.61;97133.53;5094871;28;20127;-30
2022/07/19 10:10:01;;;;;;;2.17;1.92;;;;;;;29.74;27.13;97130.28;5094470;28;20498;-28
2022/07/19 10:12:29;;;;;;;3.40;1.40;;;;;;;29.78;27.28;97122.34;5094716;28;20099;-29
2022/07/19 10:14:55;;;;;;;2.42;1.55;;;;;;;29.76;26.73;97122.13;5094501;28;20024;-29
2022/07/19 10:17:44;;;;;;;2.85;1.52;;;;;;;29.69;27.03;97119.97;5094800;28;20032;-29
2022/07/19 10:20:15;;;;;;;3.65;1.60;;;;;;;29.61;26.50;97117.81;5094425;28;20015;-29
2022/07/19 10:22:40;;;;;;;2.78;1.60;;;;;;;29.71;26.47;97123.72;5094504;28;20024;-28
2022/07/19 10:25:13;;;;;;;2.15;1.50;;;;;;;29.70;26.57;97129.84;5094457;28;20355;-30
2022/07/19 10:27:42;;;;;;;1.77;1.45;;;;;;;29.68;26.61;97113.63;5094757;28;20103;-29
2022/07/19 10:30:07;;;;;;;3.00;1.50;;;;;;;29.67;26.02;97116.97;5093290;28;20390;-29
2022/07/19 10:32:32;;;;;;;2.15;1.60;;;;;;;29.53;25.60;97119.78;5094367;28;20016;-29
2022/07/19 10:35:31;;;;;;;2.17;1.70;;;;;;;29.53;25.44;97114.19;5094160;28;20031;-28
2022/07/19 10:38:00;;;;;;;1.50;1.40;;;;;;;29.55;25.51;97119.97;5094260;28;20024;-29
2022/07/19 10:40:46;;;;;;;2.55;1.60;;;;;;;29.53;25.67;97116.22;5093935;28;20049;-29
2022/07/19 10:43:18;;;;;;;1.92;1.60;;;;;;;29.49;25.43;97108.16;5093907;28;20069;-29
2022/07/19 10:46:03;;;;;;;2.13;1.70;;;;;;;29.46;25.25;97112.00;5094124;28;20024;-29
2022/07/19 10:48:37;;;;;;;1.92;1.35;;;;;;;29.42;24.99;97114.41;5089940;28;20158;-29
2022/07/19 10:51:03;;;;;;;2.58;1.20;;;;;;;29.51;25.52;97102.78;5093996;28;20111;-29
2022/07/19 10:53:40;;;;;;;2.38;1.50;;;;;;;29.49;25.19;97105.34;5094340;28;20103;-29
2022/07/19 10:56:29;;;;;;;5.18;1.40;;;;;;;29.49;24.46;97113.00;5093680;28;20016;-29
2022/07/19 10:59:02;;;;;;;2.05;1.10;;;;;;;29.57;24.50;97103.41;5094060;28;20043;-28
2022/07/19 11:01:33;;;;;;;2.42;1.30;;;;;;;29.57;24.39;97103.41;5093890;28;20396;-29
2022/07/19 11:04:28;;;;;;;1.73;1.58;;;;;;;29.58;25.42;97093.75;5093894;28;20059;-29
2022/07/19 11:07:32;;;;;;;1.70;1.40;;;;;;;29.59;25.00;97100.84;5093724;28;20404;-28
2022/07/19 11:09:58;;;;;;;3.35;1.30;;;;;;;29.57;24.60;97097.81;5071266;28;20048;-30
2022/07/19 11:12:31;;;;;;;2.78;1.50;;;;;;;29.56;25.06;97095.56;5071306;28;20123;-29
2022/07/19 11:14:59;;;;;;;1.65;1.10;;;;;;;29.55;24.45;97105.25;5071277;28;20033;-29
2022/07/19 11:17:24;;;;;;;7.45;1.60;;;;;;;29.47;24.25;97091.16;5071149;28;20032;-29
2022/07/19 11:20:08;;;;;;;2.65;1.10;;;;;;;29.55;24.38;97078.03;5071280;28;20029;-29
2022/07/19 11:22:36;;;;;;;2.65;1.40;;;;;;;29.55;24.90;97080.84;5071136;28;20048;-29
2022/07/19 11:25:04;;;;;;;2.45;1.50;;;;;;;29.60;24.67;97077.19;5054427;28;20486;-29
2022/07/19 11:27:30;;;;;;;3.67;1.63;;;;;;;29.59;24.37;97074.94;5071295;28;20055;-29
2022/07/19 11:29:59;;;;;;;3.67;1.60;;;;;;;29.59;24.50;97081.28;5070942;28;20494;-29
2022/07/19 11:32:24;;;;;;;3.55;1.60;;;;;;;29.62;24.51;97065.47;5070986;28;20055;-29
2022/07/19 11:34:58;;;;;;;2.63;1.40;;;;;;;29.59;25.07;97072.88;5071474;28;20068;-28
2022/07/19 11:37:25;;;;;;;4.03;1.50;;;;;;;29.59;24.80;97067.28;5071140;28;20390;-30